createdAt,value
2019-03-13T00:03:59.023Z,95657.25
2019-03-13T00:08:01.741Z,95646.76
2019-03-13T00:12:04.623Z,95649.02
2019-03-13T00:16:06.625Z,95655.77
2019-03-13T00:20:11.006Z,95642.79
2019-03-13T00:24:13.032Z,95633.98
2019-03-13T00:28:14.919Z,95639.25
2019-03-13T00:32:16.881Z,95656.30
2019-03-13T00:36:18.863Z,95670.39
2019-03-13T00:40:20.856Z,95679.41
2019-03-13T00:44:22.852Z,95707.66
2019-03-13T00:48:24.775Z,95719.91
2019-03-13T00:52:26.741Z,95710.73
2019-03-13T00:56:28.660Z,95720.02
2019-03-13T01:00:48.292Z,95681.95
2019-03-13T01:04:51.840Z,95660.82
2019-03-13T01:08:53.753Z,95664.46
2019-03-13T01:12:55.631Z,95654.88
2019-03-13T01:16:57.537Z,95648.64
2019-03-13T01:20:59.515Z,95651.89
2019-03-13T01:25:01.653Z,95651.80
2019-03-13T01:29:03.559Z,95641.92
2019-03-13T01:33:07.087Z,95642.64
2019-03-13T01:37:08.997Z,95642.30
2019-03-13T01:41:10.883Z,95638.69
2019-03-13T01:45:13.120Z,95632.80
2019-03-13T01:49:15.031Z,95636.23
2019-03-13T01:53:16.931Z,95627.52
2019-03-13T01:57:18.841Z,95640.47
2019-03-13T02:01:20.746Z,95645.84
2019-03-13T02:05:22.649Z,95629.48
2019-03-13T02:09:24.555Z,95635.39
2019-03-13T02:13:26.448Z,95638.83
2019-03-13T02:17:28.359Z,95647.68
2019-03-13T02:21:30.258Z,95645.83
2019-03-13T02:25:32.860Z,95660.27
2019-03-13T02:29:34.772Z,95656.41
2019-03-13T02:33:36.692Z,95660.22
2019-03-13T02:37:38.603Z,95668.48
2019-03-13T02:41:40.473Z,95686.74
2019-03-13T02:45:42.377Z,95678.85
2019-03-13T02:49:44.280Z,95683.97
2019-03-13T02:53:46.181Z,95722.14
2019-03-13T02:57:48.089Z,95721.12
2019-03-13T03:01:51.785Z,95792.73
2019-03-13T03:05:53.686Z,95803.45
2019-03-13T03:09:55.599Z,95815.27
2019-03-13T03:13:57.541Z,95851.86
2019-03-13T03:17:59.438Z,95883.86
2019-03-13T03:22:01.772Z,95867.91
2019-03-13T03:26:03.669Z,95878.73
2019-03-13T03:30:09.822Z,95874.78
2019-03-13T03:34:11.816Z,95882.41
2019-03-13T03:38:13.812Z,95892.91
2019-03-13T03:42:16.140Z,95913.94
2019-03-13T03:46:18.081Z,95931.70
2019-03-13T03:50:20.194Z,95923.28
2019-03-13T03:54:22.103Z,95955.15
2019-03-13T03:58:24.015Z,95965.30
2019-03-13T04:02:25.933Z,95982.13
2019-03-13T04:06:28.012Z,95985.05
2019-03-13T04:10:31.001Z,95992.02
2019-03-13T04:14:32.940Z,95993.81
2019-03-13T04:18:34.838Z,96018.27
2019-03-13T04:22:36.814Z,96017.16
2019-03-13T04:26:38.764Z,96014.86
2019-03-13T04:30:40.728Z,96028.41
2019-03-13T04:34:42.637Z,96037.27
2019-03-13T04:38:44.549Z,96042.97
2019-03-13T04:42:46.453Z,96059.05
2019-03-13T04:46:48.352Z,96065.47
2019-03-13T04:50:50.254Z,96072.38
2019-03-13T04:54:52.154Z,96090.71
2019-03-13T04:58:54.042Z,96100.13
2019-03-13T05:02:55.952Z,96101.97
2019-03-13T05:06:57.850Z,96106.40
2019-03-13T05:10:59.762Z,96109.92
2019-03-13T05:15:01.673Z,96111.95
2019-03-13T05:19:03.721Z,96125.17
2019-03-13T05:23:05.625Z,96132.45
2019-03-13T05:27:07.589Z,96136.36
2019-03-13T05:31:28.083Z,96151.76
2019-03-13T05:35:37.272Z,96160.13
2019-03-13T05:39:39.176Z,96158.63
2019-03-13T05:43:41.070Z,96167.98
2019-03-13T05:47:43.043Z,96172.20
2019-03-13T05:51:45.009Z,96181.46
2019-03-13T05:55:47.086Z,96184.06
2019-03-13T05:59:48.992Z,96182.94
2019-03-13T06:03:50.911Z,96185.88
2019-03-13T06:07:52.822Z,96193.73
2019-03-13T06:11:54.721Z,96194.12
2019-03-13T06:15:56.647Z,96186.67
2019-03-13T06:20:00.461Z,96184.22
2019-03-13T06:24:02.411Z,96189.55
2019-03-13T06:28:04.310Z,96186.93
2019-03-13T06:32:06.209Z,96176.25
2019-03-13T06:36:08.108Z,96189.80
2019-03-13T06:40:16.301Z,96188.46
2019-03-13T06:44:18.234Z,96202.79
2019-03-13T06:48:20.310Z,96194.05
2019-03-13T06:52:22.215Z,96196.36
2019-03-13T06:56:24.161Z,96200.39
2019-03-13T07:00:28.821Z,96193.16
2019-03-13T07:04:48.537Z,96200.67
2019-03-13T07:08:54.530Z,96207.95
2019-03-13T07:13:04.242Z,96195.92
2019-03-13T07:17:07.791Z,96199.95
2019-03-13T07:21:27.457Z,96198.77
2019-03-13T07:25:29.170Z,96198.95
2019-03-13T07:29:35.635Z,96208.23
2019-03-13T07:33:55.146Z,96202.57
2019-03-13T07:37:58.678Z,96214.97
2019-03-13T07:42:07.618Z,96205.91
2019-03-13T07:46:16.802Z,96206.72
2019-03-13T07:50:20.320Z,96207.04
2019-03-13T07:54:26.895Z,96206.88
2019-03-13T07:58:39.513Z,96201.16
2019-03-13T08:02:58.931Z,96199.39
2019-03-13T08:07:17.598Z,96209.06
2019-03-13T08:11:30.241Z,96216.07
2019-03-13T08:15:41.607Z,96223.53
2019-03-13T08:19:43.336Z,96216.38
2019-03-13T08:23:45.003Z,96219.00
2019-03-13T08:27:54.327Z,96212.80
2019-03-13T08:32:09.385Z,96209.36
2019-03-13T08:36:15.845Z,96205.68
2019-03-13T08:40:35.558Z,96203.88
2019-03-13T08:44:45.122Z,96195.38
2019-03-13T08:48:57.403Z,96194.22
2019-03-13T08:53:02.118Z,96188.15
2019-03-13T08:57:06.398Z,96179.90
2019-03-13T09:01:26.253Z,96172.70
2019-03-13T09:05:45.989Z,96177.04
2019-03-13T09:09:52.465Z,96162.36
2019-03-13T09:13:56.080Z,96170.12
2019-03-13T09:18:08.882Z,96157.81
2019-03-13T09:22:18.510Z,96169.48
2019-03-13T09:26:22.021Z,96156.46
2019-03-13T09:30:35.724Z,96162.57
2019-03-13T09:34:51.490Z,96160.70
2019-03-13T09:38:55.041Z,96161.92
2019-03-13T09:43:01.690Z,96168.48
2019-03-13T09:47:14.249Z,96149.20
2019-03-13T09:51:18.036Z,96148.05
2019-03-13T09:55:37.204Z,96133.04
2019-03-13T09:59:55.891Z,96130.18
2019-03-13T10:04:11.649Z,96132.97
2019-03-13T10:08:28.640Z,96121.79
2019-03-13T10:12:34.824Z,96127.25
2019-03-13T10:16:41.092Z,96136.92
2019-03-13T10:20:53.676Z,96120.36
2019-03-13T10:24:57.211Z,96120.06
2019-03-13T10:29:12.817Z,96125.58
2019-03-13T10:33:32.660Z,96124.25
2019-03-13T10:37:45.161Z,96116.86
2019-03-13T10:42:03.576Z,96122.93
2019-03-13T10:46:19.398Z,96120.69
2019-03-13T10:50:39.249Z,96115.42
2019-03-13T10:54:48.711Z,96119.61
2019-03-13T10:59:10.279Z,96093.09
2019-03-13T11:03:19.714Z,96077.84
2019-03-13T11:07:40.163Z,96080.53
2019-03-13T11:11:43.726Z,96079.17
2019-03-13T11:15:50.296Z,96076.66
2019-03-13T11:19:57.744Z,96074.18
2019-03-13T11:24:13.400Z,96069.58
2019-03-13T11:28:29.523Z,96076.11
2019-03-13T11:32:42.085Z,96071.47
2019-03-13T11:37:02.207Z,96060.24
2019-03-13T11:41:05.750Z,96055.63
2019-03-13T11:45:28.502Z,96055.63
2019-03-13T11:49:48.187Z,96046.78
2019-03-13T11:53:54.739Z,96055.38
2019-03-13T11:57:56.402Z,96055.19
2019-03-13T12:02:16.075Z,96054.38
2019-03-13T12:06:19.604Z,96044.28
2019-03-13T12:10:25.975Z,96052.48
2019-03-13T12:14:35.294Z,96048.53
2019-03-13T12:18:44.814Z,96040.84
2019-03-13T12:22:54.208Z,96044.97
2019-03-13T12:27:05.573Z,96036.95
2019-03-13T12:31:09.618Z,96019.32
2019-03-13T12:35:25.301Z,96018.16
2019-03-13T12:39:37.593Z,96014.81
2019-03-13T12:43:44.279Z,96000.31
2019-03-13T12:47:53.673Z,96006.81
2019-03-13T12:51:57.215Z,96007.78
2019-03-13T12:56:09.790Z,96001.58
2019-03-13T13:00:21.904Z,96000.31
2019-03-13T13:04:25.441Z,95994.55
2019-03-13T13:08:28.998Z,96007.77
2019-03-13T13:12:35.453Z,96007.58
2019-03-13T13:16:48.804Z,95992.89
2019-03-13T13:20:50.713Z,95997.95
2019-03-13T13:24:52.598Z,95995.92
2019-03-13T13:28:54.493Z,95998.63
2019-03-13T13:32:56.488Z,95998.70
2019-03-13T13:36:58.388Z,96004.20
2019-03-13T13:41:00.294Z,95987.70
2019-03-13T13:45:02.450Z,95978.67
2019-03-13T13:49:05.495Z,95973.20
2019-03-13T13:53:07.392Z,95951.67
2019-03-13T13:57:09.311Z,95946.34
2019-03-13T14:01:11.191Z,95947.67
2019-03-13T14:05:13.165Z,95945.97
2019-03-13T14:09:15.068Z,95958.98
2019-03-13T14:13:16.983Z,95955.33
2019-03-13T14:17:18.985Z,95955.45
2019-03-13T14:21:20.927Z,95956.40
2019-03-13T14:25:23.812Z,95942.63
2019-03-13T14:29:25.712Z,95945.24
2019-03-13T14:33:27.613Z,95940.13
2019-03-13T14:37:29.563Z,95936.09
2019-03-13T14:41:31.450Z,95945.21
2019-03-13T14:45:33.355Z,95945.86
2019-03-13T14:49:35.256Z,95964.45
2019-03-13T14:53:37.153Z,95953.55
2019-03-13T14:57:39.080Z,95943.17
2019-03-13T15:01:40.976Z,95933.92
2019-03-13T15:05:42.989Z,95938.45
2019-03-13T15:09:44.892Z,95932.79
2019-03-13T15:13:46.790Z,95939.28
2019-03-13T15:17:48.903Z,95927.02
2019-03-13T15:21:50.780Z,95924.34
2019-03-13T15:25:52.923Z,95928.56
2019-03-13T15:29:54.963Z,95932.20
2019-03-13T15:33:56.868Z,95927.34
2019-03-13T15:37:58.783Z,95939.51
2019-03-13T15:42:00.680Z,95930.83
2019-03-13T15:46:02.594Z,95928.41
2019-03-13T15:50:06.847Z,95923.12
2019-03-13T15:54:08.762Z,95923.81
2019-03-13T15:58:10.686Z,95923.31
2019-03-13T16:02:12.636Z,95932.25
2019-03-13T16:06:14.539Z,95958.44
2019-03-13T16:10:18.241Z,95955.12
2019-03-13T16:14:20.147Z,95944.46
2019-03-13T16:18:22.082Z,95933.23
2019-03-13T16:22:23.973Z,95919.14
2019-03-13T16:26:25.900Z,95922.98
2019-03-13T16:30:30.862Z,95906.91
2019-03-13T16:34:33.520Z,95910.41
2019-03-13T16:38:35.461Z,95910.68
2019-03-13T16:42:37.347Z,95902.59
2019-03-13T16:46:39.249Z,95902.59
2019-03-13T16:50:41.295Z,95901.91
2019-03-13T16:54:43.214Z,95904.66
2019-03-13T16:58:45.112Z,95906.12
2019-03-13T17:02:46.996Z,95906.59
2019-03-13T17:06:48.897Z,95913.74
2019-03-13T17:10:50.798Z,95921.33
2019-03-13T17:14:52.875Z,95917.52
2019-03-13T17:18:54.855Z,95906.59
2019-03-13T17:22:56.758Z,95911.25
2019-03-13T17:26:58.647Z,95905.66
2019-03-13T17:31:00.547Z,95901.25
2019-03-13T17:35:02.443Z,95910.86
2019-03-13T17:39:06.739Z,95906.91
2019-03-13T17:43:10.222Z,95898.20
2019-03-13T17:47:12.131Z,95896.61
2019-03-13T17:51:14.041Z,95898.74
2019-03-13T17:55:20.575Z,95902.19
2019-03-13T17:59:22.476Z,95894.34
2019-03-13T18:03:25.504Z,95908.96
2019-03-13T18:07:27.407Z,95906.20
2019-03-13T18:11:29.309Z,95902.12
2019-03-13T18:15:31.205Z,95920.95
2019-03-13T18:19:33.661Z,95918.95
2019-03-13T18:23:35.631Z,95914.88
2019-03-13T18:27:37.653Z,95919.58
2019-03-13T18:31:39.594Z,95913.88
2019-03-13T18:35:43.042Z,95917.67
2019-03-13T18:39:44.947Z,95902.81
2019-03-13T18:43:46.845Z,95912.58
2019-03-13T18:47:48.741Z,95907.64
2019-03-13T18:51:50.654Z,95912.08
2019-03-13T18:55:52.575Z,95907.48
2019-03-13T18:59:54.545Z,95926.88
2019-03-13T19:03:56.424Z,95927.91
2019-03-13T19:07:59.116Z,95916.83
2019-03-13T19:12:01.595Z,95914.64
2019-03-13T19:16:03.494Z,95918.27
2019-03-13T19:20:11.842Z,95914.17
2019-03-13T19:24:13.047Z,95918.55
2019-03-13T19:28:14.943Z,95923.48
2019-03-13T19:32:16.855Z,95920.45
2019-03-13T19:36:18.777Z,95923.66
2019-03-13T19:40:22.479Z,95919.98
2019-03-13T19:44:24.542Z,95923.33
2019-03-13T19:48:26.578Z,95927.62
2019-03-13T19:52:28.589Z,95925.92
2019-03-13T19:56:30.478Z,95925.50
2019-03-13T20:00:34.079Z,95921.56
2019-03-13T20:04:46.801Z,95926.67
2019-03-13T20:08:39.648Z,95914.87
2019-03-13T20:12:42.539Z,95907.00
2019-03-13T20:16:46.607Z,95919.03
2019-03-13T20:20:48.171Z,95917.48
2019-03-13T20:24:50.068Z,95909.34
2019-03-13T20:28:51.957Z,95919.05
2019-03-13T20:32:53.948Z,95910.61
2019-03-13T20:36:58.569Z,95914.89
2019-03-13T20:40:59.590Z,95913.30
2019-03-13T20:45:01.554Z,95912.58
2019-03-13T20:49:04.629Z,95923.43
2019-03-13T20:53:06.601Z,95919.30
2019-03-13T20:57:08.502Z,95906.17
2019-03-13T21:01:10.542Z,95912.20
2019-03-13T21:05:12.602Z,95899.62
2019-03-13T21:09:14.608Z,95903.39
2019-03-13T21:13:16.677Z,95890.94
2019-03-13T21:17:18.595Z,95888.09
2019-03-13T21:21:20.539Z,95882.56
2019-03-13T21:25:25.011Z,95808.08
2019-03-13T21:29:26.909Z,95884.88
2019-03-13T21:33:28.811Z,95894.95
2019-03-13T21:37:30.785Z,95889.31
2019-03-13T21:41:35.541Z,95891.70
2019-03-13T21:45:41.412Z,95881.66
2019-03-13T21:49:42.073Z,95880.62
2019-03-13T21:53:43.954Z,95884.29
2019-03-13T21:57:45.853Z,95898.27
2019-03-13T22:01:47.878Z,95894.56
2019-03-13T22:05:49.816Z,95898.08
2019-03-13T22:09:51.719Z,95898.58
2019-03-13T22:13:53.663Z,95905.12
2019-03-13T22:17:56.383Z,95908.47
2019-03-13T22:21:58.293Z,95909.34
2019-03-13T22:26:00.175Z,95897.62
2019-03-13T22:30:02.069Z,95905.09
2019-03-13T22:34:04.128Z,95920.45
2019-03-13T22:38:06.100Z,95926.19
2019-03-13T22:42:08.007Z,95913.95
2019-03-13T22:46:13.740Z,95917.25
2019-03-13T22:50:21.259Z,95922.22
2019-03-13T22:54:23.171Z,95916.70
2019-03-13T22:58:25.196Z,95927.51
2019-03-13T23:02:27.187Z,95920.16
2019-03-13T23:06:29.075Z,95930.45
2019-03-13T23:10:36.429Z,95924.53
2019-03-13T23:14:38.320Z,95932.92
2019-03-13T23:18:40.222Z,95932.57
2019-03-13T23:22:42.149Z,95945.16
2019-03-13T23:26:44.041Z,95946.39
2019-03-13T23:30:45.957Z,95938.16
2019-03-13T23:34:47.846Z,95936.36
2019-03-13T23:38:49.736Z,95946.55
2019-03-13T23:42:51.713Z,95950.30
2019-03-13T23:46:53.614Z,95952.70
2019-03-13T23:50:55.510Z,95949.86
2019-03-13T23:54:57.418Z,95967.28
2019-03-13T23:58:59.305Z,95969.09
